createdAt,value
2017-11-14T00:00:18.805Z,93.80
2017-11-14T00:02:46.241Z,93.80
2017-11-14T00:05:13.694Z,93.80
2017-11-14T00:07:41.197Z,93.60
2017-11-14T00:10:08.735Z,93.50
2017-11-14T00:12:36.156Z,93.70
2017-11-14T00:15:04.691Z,93.50
2017-11-14T00:17:32.126Z,93.40
2017-11-14T00:19:59.554Z,93.20
2017-11-14T00:22:27.778Z,93.20
2017-11-14T00:24:55.273Z,93.10
2017-11-14T00:27:22.690Z,93.00
2017-11-14T00:29:50.117Z,93.00
2017-11-14T00:32:17.918Z,93.10
2017-11-14T00:34:45.359Z,93.30
2017-11-14T00:37:12.834Z,93.30
2017-11-14T00:39:40.282Z,93.30
2017-11-14T00:42:07.750Z,93.40
2017-11-14T00:44:35.199Z,93.30
2017-11-14T00:47:02.648Z,93.20
2017-11-14T00:49:30.428Z,93.00
2017-11-14T00:51:57.854Z,93.00
2017-11-14T00:54:25.346Z,93.00
2017-11-14T00:56:52.804Z,93.00
2017-11-14T00:59:20.234Z,93.00
2017-11-14T01:01:47.717Z,93.00
2017-11-14T01:04:15.158Z,92.80
2017-11-14T01:06:42.933Z,92.50
2017-11-14T01:09:10.362Z,92.60
2017-11-14T01:11:37.853Z,92.60
2017-11-14T01:14:05.297Z,92.50
2017-11-14T01:16:32.773Z,92.50
2017-11-14T01:19:00.222Z,92.60
2017-11-14T01:21:27.651Z,92.60
2017-11-14T01:23:55.075Z,92.80
2017-11-14T01:26:22.520Z,92.80
2017-11-14T01:28:50.076Z,92.70
2017-11-14T01:31:17.763Z,92.70
2017-11-14T01:33:45.985Z,92.40
2017-11-14T01:36:13.415Z,92.40
2017-11-14T01:38:40.898Z,92.50
2017-11-14T01:41:08.363Z,92.50
2017-11-14T01:43:36.045Z,92.30
2017-11-14T01:46:03.494Z,92.20
2017-11-14T01:48:30.914Z,92.30
2017-11-14T01:50:58.712Z,92.40
2017-11-14T01:53:26.178Z,92.40
2017-11-14T01:55:53.717Z,92.40
2017-11-14T01:58:21.161Z,92.40
2017-11-14T02:00:48.589Z,92.40
2017-11-14T02:03:16.039Z,92.40
2017-11-14T02:05:44.236Z,92.20
2017-11-14T02:08:12.032Z,92.10
2017-11-14T02:10:39.486Z,91.90
2017-11-14T02:13:06.905Z,91.80
2017-11-14T02:15:34.359Z,92.20
2017-11-14T02:18:02.556Z,92.10
2017-11-14T02:20:29.991Z,92.10
2017-11-14T02:22:58.209Z,92.20
2017-11-14T02:25:25.976Z,92.20
2017-11-14T02:27:53.994Z,92.40
2017-11-14T02:30:22.195Z,92.40
2017-11-14T02:32:49.634Z,92.40
2017-11-14T02:35:17.822Z,92.70
2017-11-14T02:37:45.281Z,92.70
2017-11-14T02:40:12.776Z,92.80
2017-11-14T02:42:40.538Z,92.70
2017-11-14T02:45:08.003Z,92.60
2017-11-14T02:47:35.437Z,92.60
2017-11-14T02:50:02.917Z,92.60
2017-11-14T02:52:30.366Z,92.80
2017-11-14T02:54:57.805Z,92.80
2017-11-14T02:57:25.246Z,92.90
2017-11-14T02:59:53.042Z,92.90
2017-11-14T03:02:20.475Z,92.90
2017-11-14T03:04:47.902Z,93.00
2017-11-14T03:07:16.134Z,93.00
2017-11-14T03:09:43.556Z,93.00
2017-11-14T03:12:11.051Z,92.90
2017-11-14T03:14:38.495Z,92.90
2017-11-14T03:17:06.261Z,92.90
2017-11-14T03:19:33.691Z,92.90
2017-11-14T03:22:01.183Z,92.80
2017-11-14T03:24:28.626Z,92.80
2017-11-14T03:26:56.051Z,92.90
2017-11-14T03:29:23.494Z,93.00
2017-11-14T03:31:51.702Z,93.30
2017-11-14T03:34:19.494Z,93.30
2017-11-14T03:36:46.931Z,93.40
2017-11-14T03:39:14.362Z,93.60
2017-11-14T03:41:42.570Z,94.00
2017-11-14T03:44:10.002Z,94.00
2017-11-14T03:46:37.509Z,93.90
2017-11-14T03:49:04.926Z,93.80
2017-11-14T03:51:32.726Z,93.50
2017-11-14T03:54:00.180Z,93.20
2017-11-14T03:56:27.622Z,93.10
2017-11-14T03:58:55.064Z,93.40
2017-11-14T04:01:22.555Z,93.70
2017-11-14T04:03:50.021Z,93.70
2017-11-14T04:06:17.438Z,93.50
2017-11-14T04:08:45.226Z,93.40
2017-11-14T04:11:12.661Z,93.40
2017-11-14T04:13:40.161Z,93.30
2017-11-14T04:16:07.597Z,93.40
2017-11-14T04:18:35.073Z,93.80
2017-11-14T04:21:02.507Z,93.90
2017-11-14T04:23:29.935Z,93.90
2017-11-14T04:25:57.635Z,93.70
2017-11-14T04:28:25.089Z,93.60
2017-11-14T04:30:52.520Z,93.50
2017-11-14T04:33:19.974Z,93.60
2017-11-14T04:35:47.467Z,93.70
2017-11-14T04:38:14.915Z,93.70
2017-11-14T04:40:42.346Z,93.50
2017-11-14T04:43:10.138Z,93.10
2017-11-14T04:45:37.601Z,93.00
2017-11-14T04:48:05.026Z,93.30
2017-11-14T04:50:32.465Z,93.20
2017-11-14T04:53:00.699Z,93.30
2017-11-14T04:55:28.139Z,93.20
2017-11-14T04:57:55.574Z,93.40
2017-11-14T05:00:23.022Z,93.30
2017-11-14T05:02:51.238Z,93.20
2017-11-14T05:05:18.686Z,93.10
2017-11-14T05:07:46.135Z,92.90
2017-11-14T05:10:13.561Z,92.80
2017-11-14T05:12:41.774Z,92.70
2017-11-14T05:15:09.211Z,92.70
2017-11-14T05:17:37.002Z,92.60
2017-11-14T05:20:04.429Z,92.50
2017-11-14T05:22:31.867Z,92.60
2017-11-14T05:25:00.078Z,92.50
2017-11-14T05:27:27.498Z,92.50
2017-11-14T05:29:55.710Z,92.10
2017-11-14T05:32:23.149Z,92.10
2017-11-14T05:34:50.949Z,92.00
2017-11-14T05:37:18.392Z,92.00
2017-11-14T05:39:45.871Z,92.00
2017-11-14T05:42:13.314Z,91.90
2017-11-14T05:44:40.756Z,91.90
2017-11-14T05:47:08.546Z,92.10
2017-11-14T05:49:35.974Z,92.10
2017-11-14T05:52:03.402Z,92.00
2017-11-14T05:54:31.614Z,92.10
2017-11-14T05:56:59.042Z,92.10
2017-11-14T05:59:27.250Z,92.20
2017-11-14T06:01:54.682Z,92.10
2017-11-14T06:04:22.503Z,92.20
2017-11-14T06:06:49.949Z,92.20
2017-11-14T06:09:17.373Z,92.20
2017-11-14T06:11:44.867Z,92.20
2017-11-14T06:14:12.287Z,92.40
2017-11-14T06:16:39.729Z,92.50
2017-11-14T06:19:07.158Z,92.50
2017-11-14T06:21:34.890Z,92.70
2017-11-14T06:24:02.350Z,92.80
2017-11-14T06:26:29.786Z,92.80
2017-11-14T06:28:57.242Z,93.00
2017-11-14T06:31:24.666Z,93.20
2017-11-14T06:33:52.903Z,93.70
2017-11-14T06:36:20.343Z,93.30
2017-11-14T06:38:48.133Z,93.50
2017-11-14T06:41:16.255Z,93.40
2017-11-14T06:43:43.754Z,93.40
2017-11-14T06:46:11.213Z,93.40
2017-11-14T06:48:38.635Z,93.20
2017-11-14T06:51:06.127Z,93.30
2017-11-14T06:53:33.584Z,93.30
2017-11-14T06:56:01.360Z,93.10
2017-11-14T06:58:28.808Z,93.00
2017-11-14T07:00:56.230Z,93.30
2017-11-14T07:03:24.560Z,93.30
2017-11-14T07:05:52.001Z,93.30
2017-11-14T07:08:19.437Z,93.30
2017-11-14T07:10:46.934Z,93.00
2017-11-14T07:13:14.693Z,92.90
2017-11-14T07:15:42.123Z,92.90
2017-11-14T07:18:09.615Z,92.70
2017-11-14T07:20:37.159Z,92.90
2017-11-14T07:23:04.581Z,92.90
2017-11-14T07:25:32.033Z,93.00
2017-11-14T07:28:00.251Z,92.40
2017-11-14T07:30:27.691Z,92.40
2017-11-14T07:32:55.126Z,92.00
2017-11-14T07:35:23.318Z,91.50
2017-11-14T07:37:50.769Z,91.50
2017-11-14T07:40:18.195Z,91.40
2017-11-14T07:42:45.647Z,91.30
2017-11-14T07:45:13.103Z,91.20
2017-11-14T07:47:40.544Z,90.70
2017-11-14T07:50:07.983Z,91.20
2017-11-14T07:52:35.536Z,90.80
2017-11-14T07:55:02.968Z,90.80
2017-11-14T07:57:30.389Z,91.00
2017-11-14T07:59:57.836Z,91.10
2017-11-14T08:02:25.262Z,90.80
2017-11-14T08:04:52.694Z,90.60
2017-11-14T08:07:20.171Z,90.50
2017-11-14T08:09:47.624Z,90.70
2017-11-14T08:12:15.075Z,90.20
2017-11-14T08:14:42.514Z,89.10
2017-11-14T08:17:10.727Z,81.60
2017-11-14T08:19:38.153Z,81.60
2017-11-14T08:22:05.594Z,78.20
2017-11-14T08:24:33.855Z,70.60
2017-11-14T08:27:01.276Z,70.50
2017-11-14T08:29:28.728Z,68.00
2017-11-14T08:31:56.175Z,67.10
2017-11-14T08:34:23.660Z,65.80
2017-11-14T08:36:51.101Z,64.10
2017-11-14T08:39:18.534Z,63.00
2017-11-14T08:41:46.031Z,62.20
2017-11-14T08:44:13.468Z,61.10
2017-11-14T08:46:40.913Z,60.60
2017-11-14T08:49:08.342Z,59.30
2017-11-14T08:51:36.578Z,57.40
2017-11-14T08:54:04.002Z,57.40
2017-11-14T08:56:31.430Z,57.50
2017-11-14T08:58:58.870Z,57.10
2017-11-14T09:01:26.314Z,57.10
2017-11-14T09:03:53.763Z,57.10
2017-11-14T09:06:21.196Z,54.60
2017-11-14T09:08:48.646Z,53.70
2017-11-14T09:11:16.073Z,53.80
2017-11-14T09:13:44.375Z,53.70
2017-11-14T09:16:11.821Z,53.70
2017-11-14T09:18:40.026Z,53.40
2017-11-14T09:21:07.465Z,53.40
2017-11-14T09:23:34.899Z,51.30
2017-11-14T09:26:03.113Z,51.70
2017-11-14T09:28:30.542Z,51.60
2017-11-14T09:30:58.735Z,51.20
2017-11-14T09:33:26.177Z,51.20
2017-11-14T09:35:54.375Z,49.80
2017-11-14T09:38:21.808Z,49.70
2017-11-14T09:40:49.240Z,49.40
2017-11-14T09:43:16.684Z,49.00
2017-11-14T09:45:44.111Z,48.40
2017-11-14T09:48:11.551Z,47.90
2017-11-14T09:50:39.007Z,47.70
2017-11-14T09:53:06.439Z,47.90
2017-11-14T09:55:34.760Z,47.20
2017-11-14T09:58:02.194Z,47.00
2017-11-14T10:00:29.733Z,47.10
2017-11-14T10:02:57.151Z,46.60
2017-11-14T10:05:24.583Z,46.50
2017-11-14T10:07:52.026Z,46.60
2017-11-14T10:10:19.466Z,45.50
2017-11-14T10:12:47.677Z,46.00
2017-11-14T10:15:15.142Z,46.00
2017-11-14T10:17:42.597Z,46.40
2017-11-14T10:20:10.022Z,46.20
2017-11-14T10:22:37.450Z,45.80
2017-11-14T10:25:04.890Z,46.40
2017-11-14T10:27:32.327Z,46.20
2017-11-14T10:29:59.786Z,46.20
2017-11-14T10:32:27.215Z,46.10
2017-11-14T10:34:54.673Z,46.30
2017-11-14T10:37:22.175Z,45.90
2017-11-14T10:39:49.630Z,44.60
2017-11-14T10:42:17.054Z,44.20
2017-11-14T10:44:44.488Z,44.30
2017-11-14T10:47:12.698Z,45.60
2017-11-14T10:49:40.125Z,45.50
2017-11-14T10:52:07.577Z,45.80
2017-11-14T10:54:35.790Z,45.20
2017-11-14T10:57:03.422Z,45.10
2017-11-14T10:59:31.631Z,43.30
2017-11-14T11:01:59.059Z,43.20
2017-11-14T11:04:26.504Z,43.00
2017-11-14T11:06:54.721Z,43.40
2017-11-14T11:09:22.165Z,43.30
2017-11-14T11:11:49.601Z,42.00
2017-11-14T11:14:17.042Z,41.60
2017-11-14T11:16:45.353Z,42.20
2017-11-14T11:19:12.778Z,42.10
2017-11-14T11:21:40.982Z,43.30
2017-11-14T11:24:08.428Z,43.10
2017-11-14T11:26:36.653Z,43.00
2017-11-14T11:29:04.082Z,42.90
2017-11-14T11:31:31.526Z,43.00
2017-11-14T11:33:58.963Z,43.00
2017-11-14T11:36:27.166Z,43.20
2017-11-14T11:38:54.620Z,43.10
2017-11-14T11:41:22.072Z,42.50
2017-11-14T11:43:49.511Z,41.40
2017-11-14T11:46:16.942Z,40.60
2017-11-14T11:48:44.390Z,39.70
2017-11-14T11:51:11.821Z,39.50
2017-11-14T11:53:39.256Z,39.20
2017-11-14T11:56:06.693Z,39.20
2017-11-14T11:58:34.898Z,38.60
2017-11-14T12:01:02.359Z,38.50
2017-11-14T12:03:29.797Z,38.00
2017-11-14T12:05:57.238Z,38.20
2017-11-14T12:08:25.445Z,37.30
2017-11-14T12:10:52.874Z,37.10
2017-11-14T12:13:21.086Z,37.00
2017-11-14T12:15:48.517Z,36.90
2017-11-14T12:18:15.958Z,36.60
2017-11-14T12:20:50.083Z,35.80
2017-11-14T12:23:17.539Z,35.70
2017-11-14T12:25:44.974Z,35.80
2017-11-14T12:28:12.393Z,35.30
2017-11-14T12:30:39.830Z,35.30
2017-11-14T12:33:07.271Z,35.10
2017-11-14T12:35:34.707Z,35.00
2017-11-14T12:38:02.914Z,34.60
2017-11-14T12:40:30.362Z,34.50
2017-11-14T12:42:57.792Z,33.70
2017-11-14T12:45:26.006Z,34.70
2017-11-14T12:47:53.439Z,34.40
2017-11-14T12:50:21.642Z,33.80
2017-11-14T12:52:49.086Z,33.80
2017-11-14T12:55:16.521Z,34.20
2017-11-14T12:57:44.726Z,33.00
2017-11-14T13:00:12.150Z,32.90
2017-11-14T13:02:40.350Z,33.90
2017-11-14T13:05:07.794Z,33.80
2017-11-14T13:07:35.222Z,33.70
2017-11-14T13:10:02.663Z,33.80
2017-11-14T13:12:30.088Z,33.80
2017-11-14T13:14:57.544Z,34.90
2017-11-14T13:17:25.005Z,35.00
2017-11-14T13:19:52.438Z,36.50
2017-11-14T13:22:20.647Z,38.80
2017-11-14T13:24:48.088Z,38.70
2017-11-14T13:27:15.520Z,40.50
2017-11-14T13:29:43.839Z,43.20
2017-11-14T13:32:11.264Z,43.10
2017-11-14T13:34:39.461Z,45.50
2017-11-14T13:37:06.907Z,45.50
2017-11-14T13:39:35.199Z,46.90
2017-11-14T13:42:02.631Z,46.60
2017-11-14T13:44:30.078Z,46.60
2017-11-14T13:46:58.287Z,47.40
2017-11-14T13:49:25.731Z,47.30
2017-11-14T13:51:53.218Z,47.50
2017-11-14T13:54:21.417Z,48.50
2017-11-14T13:56:48.866Z,48.40
2017-11-14T13:59:16.304Z,47.30
2017-11-14T14:01:44.510Z,47.50
2017-11-14T14:04:11.945Z,47.40
2017-11-14T14:06:39.378Z,47.60
2017-11-14T14:09:06.828Z,48.00
2017-11-14T14:11:34.284Z,47.60
2017-11-14T14:14:02.484Z,47.00
2017-11-14T14:16:29.909Z,47.00
2017-11-14T14:18:57.362Z,46.80
2017-11-14T14:21:24.794Z,46.30
2017-11-14T14:23:53.000Z,45.90
2017-11-14T14:26:20.448Z,45.80
2017-11-14T14:28:48.658Z,47.50
2017-11-14T14:31:16.108Z,47.40
2017-11-14T14:33:43.546Z,47.90
2017-11-14T14:36:10.981Z,49.30
2017-11-14T14:38:39.202Z,48.30
2017-11-14T14:41:06.627Z,48.30
2017-11-14T14:43:34.074Z,48.00
2017-11-14T14:46:02.277Z,48.50
2017-11-14T14:48:29.719Z,48.40
2017-11-14T14:50:57.154Z,49.00
2017-11-14T14:53:25.363Z,50.20
2017-11-14T14:55:52.791Z,50.10
2017-11-14T14:58:20.986Z,52.00
2017-11-14T15:00:48.437Z,51.40
2017-11-14T15:03:15.877Z,51.60
2017-11-14T15:05:44.106Z,52.40
2017-11-14T15:08:11.561Z,51.70
2017-11-14T15:10:39.118Z,51.90
2017-11-14T15:13:06.558Z,52.60
2017-11-14T15:15:34.018Z,52.10
2017-11-14T15:18:02.211Z,52.50
2017-11-14T15:20:29.650Z,52.40
2017-11-14T15:22:57.130Z,52.60
2017-11-14T15:25:24.571Z,52.80
2017-11-14T15:27:52.046Z,53.30
2017-11-14T15:30:19.500Z,53.70
2017-11-14T15:32:46.954Z,54.20
2017-11-14T15:35:14.425Z,54.70
2017-11-14T15:37:41.855Z,55.00
2017-11-14T15:40:09.295Z,55.30
2017-11-14T15:42:37.672Z,56.00
2017-11-14T15:45:05.882Z,56.10
2017-11-14T15:47:33.321Z,56.00
2017-11-14T15:50:00.803Z,56.30
2017-11-14T15:52:28.258Z,56.50
2017-11-14T15:54:55.691Z,56.70
2017-11-14T15:57:23.168Z,57.70
2017-11-14T15:59:50.618Z,57.90
2017-11-14T16:02:18.080Z,58.10
2017-11-14T16:04:45.507Z,62.50
2017-11-14T16:07:12.934Z,64.40
2017-11-14T16:09:41.137Z,72.40
2017-11-14T16:12:08.563Z,71.50
2017-11-14T16:14:35.999Z,74.30
2017-11-14T16:17:03.442Z,77.00
2017-11-14T16:19:31.130Z,78.80
2017-11-14T16:21:58.559Z,80.20
2017-11-14T16:24:26.018Z,81.60
2017-11-14T16:26:53.486Z,82.70
2017-11-14T16:29:20.938Z,84.20
2017-11-14T16:31:48.394Z,85.10
2017-11-14T16:34:15.835Z,85.80
2017-11-14T16:36:43.298Z,86.70
2017-11-14T16:39:10.738Z,86.90
2017-11-14T16:41:38.169Z,87.20
2017-11-14T16:44:06.391Z,88.00
2017-11-14T16:46:33.836Z,87.90
2017-11-14T16:49:01.308Z,88.60
2017-11-14T16:51:28.740Z,88.60
2017-11-14T16:53:56.191Z,88.70
2017-11-14T16:56:23.621Z,88.70
2017-11-14T16:58:51.824Z,88.80
2017-11-14T17:01:20.026Z,88.70
2017-11-14T17:03:47.468Z,88.70
2017-11-14T17:06:14.954Z,88.60
2017-11-14T17:08:42.381Z,88.50
2017-11-14T17:11:09.830Z,88.30
2017-11-14T17:13:37.265Z,87.90
2017-11-14T17:16:05.461Z,87.90
2017-11-14T17:18:32.949Z,87.80
2017-11-14T17:21:00.379Z,88.00
2017-11-14T17:23:27.829Z,87.70
2017-11-14T17:25:55.258Z,87.70
2017-11-14T17:28:23.489Z,87.60
2017-11-14T17:30:50.918Z,87.50
2017-11-14T17:33:18.414Z,87.30
2017-11-14T17:35:45.866Z,87.50
2017-11-14T17:38:13.307Z,87.60
2017-11-14T17:40:40.778Z,88.40
2017-11-14T17:43:08.244Z,87.50
2017-11-14T17:45:36.005Z,87.20
2017-11-14T17:48:03.465Z,87.00
2017-11-14T17:53:07.549Z,86.00
2017-11-14T17:55:35.737Z,85.70
2017-11-14T17:58:03.232Z,85.60
2017-11-14T18:00:30.675Z,85.90
2017-11-14T18:02:58.123Z,86.20
2017-11-14T18:05:25.549Z,86.30
2017-11-14T18:07:53.803Z,86.20
2017-11-14T18:10:21.234Z,86.10
2017-11-14T18:12:48.689Z,86.20
2017-11-14T18:15:16.134Z,86.30
2017-11-14T18:17:43.568Z,86.20
2017-11-14T18:20:11.040Z,86.40
2017-11-14T18:22:38.467Z,86.40
2017-11-14T18:25:06.680Z,86.50
2017-11-14T18:27:34.117Z,86.40
2017-11-14T18:30:01.546Z,86.60
2017-11-14T18:32:28.994Z,86.50
2017-11-14T18:34:56.425Z,86.60
2017-11-14T18:37:23.926Z,86.50
2017-11-14T18:39:51.455Z,86.40
2017-11-14T18:42:18.879Z,86.30
2017-11-14T18:44:46.343Z,86.00
2017-11-14T18:47:14.702Z,85.90
2017-11-14T18:49:42.141Z,85.60
2017-11-14T18:52:10.335Z,85.30
2017-11-14T18:54:37.828Z,85.30
2017-11-14T18:57:05.271Z,85.00
2017-11-14T18:59:32.706Z,84.70
2017-11-14T19:02:00.155Z,84.60
2017-11-14T19:04:27.680Z,84.50
2017-11-14T19:06:55.110Z,84.30
2017-11-14T19:09:22.538Z,84.20
2017-11-14T19:11:50.108Z,84.40
2017-11-14T19:14:17.527Z,84.30
2017-11-14T19:16:45.717Z,84.00
2017-11-14T19:19:13.162Z,83.70
2017-11-14T19:21:41.393Z,82.90
2017-11-14T19:24:08.834Z,82.80
2017-11-14T19:26:36.274Z,82.60
2017-11-14T19:29:04.569Z,82.60
2017-11-14T19:31:32.004Z,82.50
2017-11-14T19:33:59.591Z,82.50
2017-11-14T19:36:27.038Z,82.40
2017-11-14T19:38:54.458Z,82.50
2017-11-14T19:41:22.694Z,82.10
2017-11-14T19:43:50.927Z,81.90
2017-11-14T19:46:18.674Z,81.80
2017-11-14T19:48:46.996Z,81.70
2017-11-14T19:51:14.410Z,81.60
2017-11-14T19:53:42.646Z,81.50
2017-11-14T19:56:10.817Z,81.30
2017-11-14T19:58:39.105Z,81.30
2017-11-14T20:01:06.550Z,81.30
2017-11-14T20:03:40.370Z,81.40
2017-11-14T20:06:09.144Z,81.20
2017-11-14T20:08:37.715Z,81.30
2017-11-14T20:11:05.294Z,81.20
2017-11-14T20:13:33.486Z,81.30
2017-11-14T20:16:00.943Z,81.30
2017-11-14T20:18:29.208Z,81.20
2017-11-14T20:20:56.757Z,81.20
2017-11-14T20:23:24.190Z,82.20
2017-11-14T20:25:51.654Z,81.30
2017-11-14T20:28:19.116Z,81.30
2017-11-14T20:30:46.542Z,81.20
2017-11-14T20:33:13.998Z,81.30
2017-11-14T20:35:42.174Z,81.70
2017-11-14T20:38:09.630Z,81.50
2017-11-14T20:40:37.859Z,81.60
2017-11-14T20:43:05.314Z,81.50
2017-11-14T20:45:32.774Z,81.60
2017-11-14T20:48:00.219Z,81.60
2017-11-14T20:50:27.672Z,81.60
2017-11-14T20:52:55.092Z,81.80
2017-11-14T20:55:22.539Z,81.80
2017-11-14T20:57:50.743Z,81.70
2017-11-14T21:00:18.189Z,81.60
2017-11-14T21:02:46.406Z,81.60
2017-11-14T21:05:13.850Z,81.50
2017-11-14T21:07:42.146Z,81.50
2017-11-14T21:10:09.597Z,81.40
2017-11-14T21:12:37.045Z,81.50
2017-11-14T21:15:04.505Z,81.50
2017-11-14T21:17:31.970Z,81.50
2017-11-14T21:19:59.410Z,81.50
2017-11-14T21:22:26.847Z,81.60
2017-11-14T21:24:54.309Z,81.80
2017-11-14T21:27:21.742Z,82.00
2017-11-14T21:29:49.942Z,82.30
2017-11-14T21:32:17.418Z,82.20
2017-11-14T21:34:44.877Z,82.30
2017-11-14T21:37:12.324Z,83.40
2017-11-14T21:39:39.771Z,82.70
2017-11-14T21:42:07.211Z,82.90
2017-11-14T21:44:34.645Z,83.90
2017-11-14T21:47:02.089Z,83.10
2017-11-14T21:49:29.532Z,83.10
2017-11-14T21:51:57.282Z,83.40
2017-11-14T21:54:24.714Z,83.50
2017-11-14T21:56:52.146Z,83.50
2017-11-14T21:59:20.364Z,83.90
2017-11-14T22:01:47.821Z,83.80
2017-11-14T22:04:15.255Z,83.90
2017-11-14T22:06:42.690Z,84.00
2017-11-14T22:09:10.910Z,84.40
2017-11-14T22:11:38.389Z,84.40
2017-11-14T22:14:05.809Z,84.50
2017-11-14T22:16:33.303Z,84.60
2017-11-14T22:19:00.738Z,84.50
2017-11-14T22:21:28.181Z,84.80
2017-11-14T22:23:55.617Z,85.00
2017-11-14T22:26:23.825Z,85.30
2017-11-14T22:28:51.251Z,85.20
2017-11-14T22:31:18.678Z,85.30
2017-11-14T22:33:46.149Z,85.30
2017-11-14T22:36:13.587Z,86.20
2017-11-14T22:38:41.023Z,85.40
2017-11-14T22:41:08.467Z,85.30
2017-11-14T22:43:35.927Z,85.30
2017-11-14T22:46:03.414Z,85.40
2017-11-14T22:48:30.857Z,85.30
2017-11-14T22:50:58.303Z,85.30
2017-11-14T22:53:25.737Z,85.40
2017-11-14T22:55:53.174Z,85.40
2017-11-14T22:58:21.383Z,85.70
2017-11-14T23:00:48.822Z,85.60
2017-11-14T23:03:16.278Z,85.60
2017-11-14T23:05:43.723Z,85.50
2017-11-14T23:08:11.927Z,85.50
2017-11-14T23:10:39.370Z,85.40
2017-11-14T23:13:07.577Z,85.70
2017-11-14T23:15:35.011Z,85.50
2017-11-14T23:18:02.502Z,85.60
2017-11-14T23:20:29.958Z,85.80
2017-11-14T23:22:57.397Z,85.70
2017-11-14T23:25:24.842Z,85.80
2017-11-14T23:27:52.277Z,85.70
2017-11-14T23:30:19.787Z,85.70
2017-11-14T23:32:47.242Z,85.80
2017-11-14T23:35:14.693Z,85.80
2017-11-14T23:37:42.189Z,85.80
2017-11-14T23:40:09.722Z,85.90
2017-11-14T23:42:37.178Z,85.80
2017-11-14T23:45:04.618Z,85.50
2017-11-14T23:47:32.078Z,85.60
2017-11-14T23:49:59.557Z,85.50
2017-11-14T23:52:26.985Z,85.40
2017-11-14T23:54:54.441Z,85.30
2017-11-14T23:57:21.866Z,85.00
2017-11-14T23:59:50.066Z,84.80
